createdAt,value
2022-07-28T00:00:02.719Z,10.36
2022-07-28T00:02:30.834Z,10.39
2022-07-28T00:04:58.966Z,10.44
2022-07-28T00:07:27.053Z,10.49
2022-07-28T00:10:00.276Z,10.55
2022-07-28T00:12:29.127Z,10.59
2022-07-28T00:14:57.252Z,10.62
2022-07-28T00:17:25.221Z,10.65
2022-07-28T00:19:53.647Z,10.58
2022-07-28T00:22:21.918Z,10.64
2022-07-28T00:24:50.717Z,10.63
2022-07-28T00:27:22.519Z,10.60
2022-07-28T00:29:51.322Z,10.64
2022-07-28T00:32:20.585Z,10.60
2022-07-28T00:34:53.488Z,10.62
2022-07-28T00:37:22.000Z,10.64
2022-07-28T00:39:50.020Z,10.64
2022-07-28T00:42:19.167Z,10.67
2022-07-28T00:44:49.059Z,10.66
2022-07-28T00:47:17.001Z,10.61
2022-07-28T00:49:46.408Z,10.72
2022-07-28T00:52:17.288Z,10.75
2022-07-28T00:54:45.493Z,10.76
2022-07-28T00:57:13.699Z,10.83
2022-07-28T00:59:42.403Z,10.82
2022-07-28T01:02:14.042Z,10.83
2022-07-28T01:04:42.021Z,10.84
2022-07-28T01:07:16.423Z,10.89
2022-07-28T01:09:53.353Z,10.90
2022-07-28T01:12:47.049Z,10.93
2022-07-28T01:15:23.731Z,11.00
2022-07-28T01:18:00.433Z,11.09
2022-07-28T01:20:35.244Z,11.11
2022-07-28T01:23:24.174Z,11.17
2022-07-28T01:26:07.592Z,11.19
2022-07-28T01:28:55.575Z,11.23
2022-07-28T01:31:27.700Z,11.29
2022-07-28T01:33:59.632Z,11.35
2022-07-28T01:36:34.358Z,11.45
2022-07-28T01:39:03.554Z,11.47
2022-07-28T01:41:34.138Z,11.51
2022-07-28T01:44:07.332Z,11.55
2022-07-28T01:46:38.438Z,11.51
2022-07-28T01:49:09.316Z,11.55
2022-07-28T01:51:38.327Z,11.48
2022-07-28T01:54:08.943Z,11.53
2022-07-28T01:56:38.082Z,11.49
2022-07-28T01:59:09.953Z,11.35
2022-07-28T02:01:45.678Z,11.45
2022-07-28T02:04:19.663Z,11.42
2022-07-28T02:06:49.082Z,11.46
2022-07-28T02:09:17.937Z,11.45
2022-07-28T02:11:47.432Z,11.42
2022-07-28T02:14:17.762Z,11.44
2022-07-28T02:16:50.429Z,11.54
2022-07-28T02:19:20.857Z,11.51
2022-07-28T02:21:50.745Z,11.46
2022-07-28T02:24:22.625Z,11.47
2022-07-28T02:26:56.946Z,11.44
2022-07-28T02:29:49.604Z,11.48
2022-07-28T02:32:27.667Z,11.47
2022-07-28T02:35:00.185Z,11.50
2022-07-28T02:37:35.959Z,11.55
2022-07-28T02:40:05.764Z,11.54
2022-07-28T02:42:36.696Z,11.57
2022-07-28T02:45:08.002Z,11.54
2022-07-28T02:47:42.439Z,11.57
2022-07-28T02:50:12.254Z,11.56
2022-07-28T02:52:42.784Z,11.54
2022-07-28T02:55:13.599Z,11.57
2022-07-28T02:57:45.067Z,11.59
2022-07-28T03:00:14.438Z,11.61
2022-07-28T03:02:46.983Z,11.53
2022-07-28T03:05:16.997Z,11.61
2022-07-28T03:07:50.933Z,11.58
2022-07-28T03:10:33.529Z,11.57
2022-07-28T03:13:04.102Z,11.55
2022-07-28T03:15:32.410Z,11.61
2022-07-28T03:18:02.272Z,11.65
2022-07-28T03:20:30.699Z,11.66
2022-07-28T03:22:59.480Z,11.62
2022-07-28T03:25:31.259Z,11.63
2022-07-28T03:28:01.197Z,11.66
2022-07-28T03:30:36.333Z,11.70
2022-07-28T03:33:05.944Z,11.70
2022-07-28T03:35:36.116Z,11.70
2022-07-28T03:38:09.678Z,11.78
2022-07-28T03:40:39.819Z,11.73
2022-07-28T03:43:10.959Z,11.67
2022-07-28T03:45:40.955Z,11.68
2022-07-28T03:48:10.281Z,11.71
2022-07-28T03:50:38.298Z,11.73
2022-07-28T03:53:15.338Z,11.73
2022-07-28T03:55:43.246Z,11.76
2022-07-28T03:58:11.096Z,11.75
2022-07-28T04:00:39.109Z,11.75
2022-07-28T04:03:35.236Z,11.80
2022-07-28T04:05:58.255Z,11.79
2022-07-28T04:08:26.137Z,11.83
2022-07-28T04:10:54.384Z,11.87
2022-07-28T04:13:22.570Z,11.83
2022-07-28T04:15:50.371Z,11.86
2022-07-28T04:18:18.513Z,11.93
2022-07-28T04:20:47.099Z,11.92
2022-07-28T04:23:16.358Z,11.99
2022-07-28T04:25:44.357Z,11.98
2022-07-28T04:28:12.273Z,11.93
2022-07-28T04:30:44.205Z,11.92
2022-07-28T04:33:12.791Z,11.96
2022-07-28T04:35:40.896Z,11.97
2022-07-28T04:38:08.741Z,11.93
2022-07-28T04:40:39.040Z,11.89
2022-07-28T04:43:07.226Z,11.88
2022-07-28T04:45:35.539Z,11.81
2022-07-28T04:48:03.420Z,11.82
2022-07-28T04:50:31.295Z,11.80
2022-07-28T04:53:00.139Z,11.72
2022-07-28T04:55:28.141Z,11.66
2022-07-28T04:57:57.398Z,11.61
2022-07-28T05:00:28.701Z,11.64
2022-07-28T05:02:58.381Z,11.60
2022-07-28T05:05:26.579Z,11.49
2022-07-28T05:07:55.503Z,11.62
2022-07-28T05:10:23.910Z,11.61
2022-07-28T05:12:53.306Z,11.59
2022-07-28T05:15:22.912Z,11.55
2022-07-28T05:17:50.930Z,11.53
2022-07-28T05:20:18.774Z,11.43
2022-07-28T05:22:51.274Z,11.53
2022-07-28T05:25:21.758Z,11.39
2022-07-28T05:27:50.803Z,11.78
2022-07-28T05:30:19.704Z,11.96
2022-07-28T05:32:49.509Z,12.12
2022-07-28T05:35:17.696Z,12.36
2022-07-28T05:37:45.600Z,12.29
2022-07-28T05:40:15.510Z,12.19
2022-07-28T05:42:44.205Z,12.16
2022-07-28T05:45:15.969Z,12.10
2022-07-28T05:47:47.234Z,12.05
2022-07-28T05:50:17.591Z,12.00
2022-07-28T05:52:46.319Z,11.98
2022-07-28T05:55:15.580Z,11.93
2022-07-28T05:57:43.424Z,11.92
2022-07-28T06:00:16.569Z,11.93
2022-07-28T06:02:46.130Z,12.00
2022-07-28T06:05:14.725Z,12.10
2022-07-28T06:07:44.713Z,12.18
2022-07-28T06:10:13.976Z,12.28
2022-07-28T06:12:42.815Z,12.38
2022-07-28T06:15:14.528Z,12.50
2022-07-28T06:17:42.668Z,12.78
2022-07-28T06:20:12.234Z,13.28
2022-07-28T06:22:46.424Z,13.66
2022-07-28T06:25:15.446Z,14.09
2022-07-28T06:27:43.668Z,14.45
2022-07-28T06:30:12.409Z,14.84
2022-07-28T06:32:40.308Z,15.07
2022-07-28T06:35:09.414Z,15.44
2022-07-28T06:37:37.416Z,15.62
2022-07-28T06:40:08.963Z,15.88
2022-07-28T06:42:36.889Z,16.13
2022-07-28T06:45:05.646Z,16.26
2022-07-28T06:47:33.766Z,16.36
2022-07-28T06:50:01.669Z,16.46
2022-07-28T06:52:29.910Z,16.57
2022-07-28T06:54:58.456Z,16.55
2022-07-28T06:57:33.598Z,16.51
2022-07-28T07:00:03.582Z,16.70
2022-07-28T07:02:31.836Z,16.73
2022-07-28T07:05:01.034Z,16.82
2022-07-28T07:07:28.897Z,16.80
2022-07-28T07:09:56.679Z,16.77
2022-07-28T07:12:25.015Z,16.76
2022-07-28T07:14:55.073Z,16.83
2022-07-28T07:17:22.953Z,16.86
2022-07-28T07:19:51.057Z,16.80
2022-07-28T07:22:19.345Z,16.84
2022-07-28T07:24:47.198Z,16.91
2022-07-28T07:27:15.460Z,16.89
2022-07-28T07:29:43.318Z,16.80
2022-07-28T07:32:12.549Z,16.73
2022-07-28T07:34:40.614Z,16.87
2022-07-28T07:37:13.537Z,16.95
2022-07-28T07:39:42.478Z,17.01
2022-07-28T07:42:10.537Z,17.06
2022-07-28T07:44:39.451Z,17.04
2022-07-28T07:47:10.362Z,17.20
2022-07-28T07:49:44.977Z,17.33
2022-07-28T07:52:14.472Z,17.43
2022-07-28T07:54:42.702Z,17.50
2022-07-28T07:57:10.827Z,17.57
2022-07-28T07:59:39.090Z,17.58
2022-07-28T08:02:07.923Z,17.74
2022-07-28T08:04:37.709Z,17.80
2022-07-28T08:07:07.900Z,17.85
2022-07-28T08:09:36.365Z,17.86
2022-07-28T08:12:04.884Z,18.01
2022-07-28T08:14:33.039Z,18.05
2022-07-28T08:17:00.889Z,18.33
2022-07-28T08:19:29.082Z,18.63
2022-07-28T08:21:57.108Z,18.69
2022-07-28T08:24:32.708Z,18.65
2022-07-28T08:27:02.625Z,18.81
2022-07-28T08:29:30.384Z,18.79
2022-07-28T08:31:58.359Z,18.74
2022-07-28T08:34:33.061Z,18.60
2022-07-28T08:37:03.419Z,18.71
2022-07-28T08:39:36.780Z,18.90
2022-07-28T08:42:07.267Z,19.08
2022-07-28T08:44:44.270Z,19.24
2022-07-28T08:47:13.211Z,19.23
2022-07-28T08:49:43.717Z,18.99
2022-07-28T08:52:14.054Z,18.94
2022-07-28T08:54:46.502Z,19.21
2022-07-28T08:57:19.021Z,19.36
2022-07-28T08:59:48.763Z,19.22
2022-07-28T09:02:17.347Z,19.00
2022-07-28T09:04:46.625Z,19.14
2022-07-28T09:07:14.711Z,19.34
2022-07-28T09:09:44.737Z,19.62
2022-07-28T09:12:12.949Z,19.58
2022-07-28T09:14:40.897Z,19.32
2022-07-28T09:17:09.745Z,19.27
2022-07-28T09:19:38.815Z,19.29
2022-07-28T09:22:08.349Z,19.17
2022-07-28T09:24:37.718Z,19.21
2022-07-28T09:27:09.420Z,19.38
2022-07-28T09:29:39.258Z,19.14
2022-07-28T09:32:07.738Z,18.86
2022-07-28T09:34:42.717Z,18.81
2022-07-28T09:37:20.987Z,18.67
2022-07-28T09:39:53.220Z,18.66
2022-07-28T09:42:22.727Z,18.70
2022-07-28T09:45:24.612Z,19.21
2022-07-28T09:48:11.136Z,20.50
2022-07-28T09:50:40.451Z,20.84
2022-07-28T09:53:27.522Z,20.89
2022-07-28T09:55:59.222Z,20.95
2022-07-28T09:58:29.609Z,21.57
2022-07-28T10:01:10.189Z,21.99
2022-07-28T10:03:42.896Z,22.29
2022-07-28T10:06:16.337Z,22.43
2022-07-28T10:08:47.123Z,21.70
2022-07-28T10:11:17.085Z,21.20
2022-07-28T10:13:58.381Z,20.68
2022-07-28T10:16:27.980Z,21.36
2022-07-28T10:18:56.660Z,21.42
2022-07-28T10:21:26.313Z,21.99
2022-07-28T10:23:55.944Z,23.05
2022-07-28T10:26:30.230Z,23.54
2022-07-28T10:29:04.984Z,23.28
2022-07-28T10:31:36.133Z,23.13
2022-07-28T10:34:06.592Z,23.44
2022-07-28T10:36:36.133Z,23.42
2022-07-28T10:39:11.272Z,23.46
2022-07-28T10:41:42.412Z,24.75
2022-07-28T10:44:15.545Z,26.16
2022-07-28T10:46:44.572Z,26.40
2022-07-28T10:49:14.088Z,26.44
2022-07-28T10:52:06.319Z,26.04
2022-07-28T10:54:44.192Z,24.59
2022-07-28T10:57:14.387Z,23.16
2022-07-28T11:00:12.629Z,23.06
2022-07-28T11:02:46.284Z,23.08
2022-07-28T11:05:39.077Z,24.46
2022-07-28T11:08:10.852Z,25.49
2022-07-28T11:10:48.144Z,25.76
2022-07-28T11:13:29.217Z,26.21
2022-07-28T11:16:18.268Z,26.80
2022-07-28T11:19:04.930Z,25.44
2022-07-28T11:21:41.092Z,23.94
2022-07-28T11:24:09.459Z,23.24
2022-07-28T11:26:46.025Z,23.16
2022-07-28T11:29:22.382Z,24.82
2022-07-28T11:32:07.901Z,26.03
2022-07-28T11:35:11.240Z,26.62
2022-07-28T11:38:11.125Z,27.25
2022-07-28T11:40:41.554Z,27.91
2022-07-28T11:43:36.426Z,28.17
2022-07-28T11:46:37.637Z,28.20
2022-07-28T11:49:26.042Z,28.52
2022-07-28T11:52:15.475Z,28.52
2022-07-28T11:54:51.616Z,29.15
2022-07-28T11:57:21.318Z,29.02
2022-07-28T12:00:08.451Z,29.83
2022-07-28T12:02:36.855Z,29.29
2022-07-28T12:05:13.536Z,27.26
2022-07-28T12:07:44.814Z,26.54
2022-07-28T12:13:28.129Z,27.83
2022-07-28T12:15:57.632Z,27.37
2022-07-28T12:18:25.613Z,26.62
2022-07-28T12:20:56.009Z,26.23
2022-07-28T12:23:45.452Z,26.28
2022-07-28T12:26:29.534Z,25.15
2022-07-28T12:29:00.154Z,23.89
2022-07-28T12:31:33.185Z,23.12
2022-07-28T12:34:01.553Z,22.92
2022-07-28T12:36:31.138Z,23.51
2022-07-28T12:39:00.527Z,24.35
2022-07-28T12:41:34.421Z,24.68
2022-07-28T12:44:06.130Z,24.78
2022-07-28T12:46:34.543Z,24.08
2022-07-28T12:49:03.291Z,23.26
2022-07-28T12:51:34.608Z,23.20
2022-07-28T12:54:03.436Z,23.34
2022-07-28T12:56:31.451Z,23.59
2022-07-28T12:59:07.157Z,23.70
2022-07-28T13:01:48.699Z,24.26
2022-07-28T13:04:18.348Z,24.51
2022-07-28T13:06:57.562Z,24.47
2022-07-28T13:09:35.145Z,25.10
2022-07-28T13:12:03.544Z,26.19
2022-07-28T13:14:41.225Z,26.73
2022-07-28T13:17:09.273Z,27.74
2022-07-28T13:19:37.678Z,27.90
2022-07-28T13:22:09.314Z,28.22
2022-07-28T13:24:37.842Z,28.23
2022-07-28T13:27:06.917Z,27.73
2022-07-28T13:29:36.418Z,27.13
2022-07-28T13:32:04.728Z,27.15
2022-07-28T13:34:32.863Z,26.82
2022-07-28T13:37:00.956Z,26.68
2022-07-28T13:39:30.672Z,26.96
2022-07-28T13:41:59.393Z,27.40
2022-07-28T13:44:27.867Z,28.15
2022-07-28T13:46:56.927Z,27.61
2022-07-28T13:49:27.871Z,28.72
2022-07-28T13:51:57.290Z,29.72
2022-07-28T13:54:25.457Z,30.15
2022-07-28T13:56:54.748Z,29.68
2022-07-28T13:59:26.150Z,30.33
2022-07-28T14:01:56.029Z,30.68
2022-07-28T14:04:24.709Z,30.46
2022-07-28T14:06:54.925Z,30.64
2022-07-28T14:09:23.061Z,31.34
2022-07-28T14:11:53.530Z,32.29
2022-07-28T14:14:24.934Z,32.52
2022-07-28T14:16:55.161Z,33.04
2022-07-28T14:19:37.949Z,33.32
2022-07-28T14:22:13.372Z,32.74
2022-07-28T14:24:42.232Z,33.19
2022-07-28T14:27:11.073Z,31.54
2022-07-28T14:29:40.541Z,28.63
2022-07-28T14:32:08.824Z,26.65
2022-07-28T14:34:36.967Z,26.00
2022-07-28T14:37:09.176Z,25.27
2022-07-28T14:39:38.475Z,25.44
2022-07-28T14:42:07.666Z,25.82
2022-07-28T14:44:35.704Z,24.84
2022-07-28T14:47:07.529Z,24.04
2022-07-28T14:49:36.012Z,23.53
2022-07-28T14:52:04.572Z,22.91
2022-07-28T14:54:34.953Z,23.81
2022-07-28T14:57:03.426Z,24.63
2022-07-28T14:59:31.263Z,25.25
2022-07-28T15:01:59.729Z,24.69
2022-07-28T15:04:28.997Z,23.83
2022-07-28T15:06:56.789Z,23.11
2022-07-28T15:09:24.762Z,22.84
2022-07-28T15:11:52.935Z,22.91
2022-07-28T15:14:21.366Z,24.33
2022-07-28T15:16:50.074Z,26.13
2022-07-28T15:19:18.213Z,26.38
2022-07-28T15:21:48.024Z,25.24
2022-07-28T15:24:17.069Z,24.62
2022-07-28T15:26:45.365Z,23.40
2022-07-28T15:29:13.513Z,22.40
2022-07-28T15:31:42.716Z,21.94
2022-07-28T15:34:13.386Z,22.44
2022-07-28T15:36:42.538Z,24.23
2022-07-28T15:39:14.714Z,26.11
2022-07-28T15:41:43.782Z,27.68
2022-07-28T15:44:12.756Z,28.80
2022-07-28T15:46:41.889Z,29.45
2022-07-28T15:49:12.662Z,29.89
2022-07-28T15:51:41.222Z,30.31
2022-07-28T15:54:09.382Z,30.91
2022-07-28T15:56:38.837Z,31.50
2022-07-28T15:59:07.655Z,30.46
2022-07-28T16:01:35.605Z,29.73
2022-07-28T16:04:04.430Z,28.56
2022-07-28T16:06:48.756Z,27.62
2022-07-28T16:09:16.884Z,26.97
2022-07-28T16:11:46.514Z,26.52
2022-07-28T16:14:14.745Z,25.37
2022-07-28T16:16:42.955Z,24.39
2022-07-28T16:19:31.756Z,23.26
2022-07-28T16:21:59.261Z,22.34
2022-07-28T16:24:27.157Z,21.66
2022-07-28T16:26:56.540Z,21.88
2022-07-28T16:29:24.654Z,23.58
2022-07-28T16:31:52.640Z,25.02
2022-07-28T16:34:20.472Z,25.58
2022-07-28T16:36:49.433Z,25.41
2022-07-28T16:39:17.385Z,25.11
2022-07-28T16:41:47.707Z,24.26
2022-07-28T16:44:18.348Z,23.86
2022-07-28T16:46:46.834Z,23.08
2022-07-28T16:49:16.084Z,22.86
2022-07-28T16:51:44.570Z,22.55
2022-07-28T16:54:14.003Z,22.35
2022-07-28T16:56:42.878Z,22.16
2022-07-28T16:59:10.720Z,21.89
2022-07-28T17:01:45.550Z,21.69
2022-07-28T17:04:14.383Z,21.48
2022-07-28T17:06:42.774Z,21.14
2022-07-28T17:09:11.220Z,21.15
2022-07-28T17:11:40.666Z,21.00
2022-07-28T17:14:08.877Z,20.79
2022-07-28T17:16:37.137Z,20.57
2022-07-28T17:19:06.538Z,20.39
2022-07-28T17:21:35.810Z,20.25
2022-07-28T17:24:03.961Z,20.22
2022-07-28T17:29:21.210Z,20.17
2022-07-28T17:31:49.811Z,20.10
2022-07-28T17:34:19.939Z,20.09
2022-07-28T17:36:48.214Z,20.06
2022-07-28T17:39:16.050Z,20.02
2022-07-28T17:41:44.046Z,19.95
2022-07-28T17:44:11.936Z,19.85
2022-07-28T17:46:40.329Z,19.77
2022-07-28T17:49:10.321Z,19.82
2022-07-28T17:51:39.531Z,19.58
2022-07-28T17:54:07.592Z,19.36
2022-07-28T17:56:38.305Z,19.32
2022-07-28T17:59:08.056Z,19.07
2022-07-28T18:01:36.217Z,18.67
2022-07-28T18:04:04.099Z,18.47
2022-07-28T18:06:35.028Z,18.29
2022-07-28T18:09:08.206Z,18.21
2022-07-28T18:11:57.905Z,18.07
2022-07-28T18:14:26.363Z,18.09
2022-07-28T18:16:54.439Z,17.98
2022-07-28T18:19:22.489Z,17.89
2022-07-28T18:21:50.361Z,17.91
2022-07-28T18:24:22.312Z,17.91
2022-07-28T18:26:51.078Z,17.83
2022-07-28T18:29:20.336Z,17.57
2022-07-28T18:31:50.834Z,17.47
2022-07-28T18:34:19.454Z,17.38
2022-07-28T18:36:51.755Z,17.22
2022-07-28T18:39:21.074Z,17.15
2022-07-28T18:41:48.908Z,17.07
2022-07-28T18:44:18.067Z,17.00
2022-07-28T18:46:46.648Z,16.93
2022-07-28T18:49:14.641Z,16.93
2022-07-28T18:51:45.112Z,16.88
2022-07-28T18:54:15.601Z,16.82
2022-07-28T18:56:47.073Z,16.67
2022-07-28T18:59:14.901Z,16.56
2022-07-28T19:01:42.833Z,16.48
2022-07-28T19:04:10.955Z,16.40
2022-07-28T19:06:38.804Z,16.34
2022-07-28T19:09:06.905Z,16.30
2022-07-28T19:11:35.125Z,16.30
2022-07-28T19:14:05.392Z,16.30
2022-07-28T19:16:33.835Z,16.17
2022-07-28T19:19:02.710Z,16.14
2022-07-28T19:21:31.124Z,16.05
2022-07-28T19:23:58.958Z,15.94
2022-07-28T19:26:27.109Z,15.90
2022-07-28T19:28:55.219Z,15.75
2022-07-28T19:31:25.515Z,15.77
2022-07-28T19:33:55.561Z,15.75
2022-07-28T19:36:23.449Z,15.59
2022-07-28T19:38:51.463Z,15.57
2022-07-28T19:41:19.443Z,15.46
2022-07-28T19:43:47.481Z,15.39
2022-07-28T19:46:15.800Z,15.37
2022-07-28T19:48:45.147Z,15.33
2022-07-28T19:51:13.172Z,15.28
2022-07-28T19:53:41.426Z,15.18
2022-07-28T19:56:09.382Z,15.14
2022-07-28T19:58:37.629Z,15.16
2022-07-28T20:01:06.480Z,15.14
2022-07-28T20:04:02.478Z,15.11
2022-07-28T20:06:24.945Z,15.08
2022-07-28T20:08:53.970Z,15.05
2022-07-28T20:11:21.915Z,15.08
2022-07-28T20:13:50.191Z,14.99
2022-07-28T20:16:18.537Z,14.97
2022-07-28T20:18:46.423Z,14.98
2022-07-28T20:21:14.808Z,14.98
2022-07-28T20:23:44.017Z,14.89
2022-07-28T20:26:12.398Z,14.83
2022-07-28T20:28:40.375Z,14.72
2022-07-28T20:31:11.326Z,14.62
2022-07-28T20:33:41.811Z,14.51
2022-07-28T20:36:09.621Z,14.39
2022-07-28T20:38:39.291Z,14.25
2022-07-28T20:41:08.975Z,14.11
2022-07-28T20:43:38.061Z,14.04
2022-07-28T20:46:06.168Z,13.93
2022-07-28T20:48:35.014Z,13.90
2022-07-28T20:51:03.041Z,13.80
2022-07-28T20:53:30.858Z,13.79
2022-07-28T20:55:58.704Z,13.73
2022-07-28T20:58:28.348Z,13.68
2022-07-28T21:00:58.433Z,13.56
2022-07-28T21:03:26.370Z,13.47
2022-07-28T21:05:54.914Z,13.31
2022-07-28T21:08:23.090Z,13.17
2022-07-28T21:10:51.410Z,12.98
2022-07-28T21:13:19.339Z,12.85
2022-07-28T21:15:48.586Z,12.72
2022-07-28T21:18:17.996Z,12.59
2022-07-28T21:20:46.030Z,12.45
2022-07-28T21:23:13.854Z,12.34
2022-07-28T21:25:45.171Z,12.14
2022-07-28T21:28:31.127Z,12.26
2022-07-28T21:31:02.451Z,12.35
2022-07-28T21:33:30.434Z,12.28
2022-07-28T21:35:58.299Z,12.26
2022-07-28T21:38:26.449Z,12.17
2022-07-28T21:40:54.269Z,12.03
2022-07-28T21:43:22.109Z,11.97
2022-07-28T21:45:50.330Z,11.90
2022-07-28T21:48:23.320Z,11.78
2022-07-28T21:50:51.593Z,11.64
2022-07-28T21:53:19.848Z,11.52
2022-07-28T21:55:48.587Z,11.38
2022-07-28T21:58:17.296Z,11.28
2022-07-28T22:00:45.193Z,11.20
2022-07-28T22:03:13.070Z,11.08
2022-07-28T22:05:43.071Z,11.01
2022-07-28T22:08:10.873Z,10.94
2022-07-28T22:10:38.709Z,10.86
2022-07-28T22:13:06.811Z,10.79
2022-07-28T22:15:34.718Z,10.74
2022-07-28T22:18:02.514Z,10.72
2022-07-28T22:20:30.799Z,10.72
2022-07-28T22:23:00.019Z,10.65
2022-07-28T22:25:28.103Z,10.59
2022-07-28T22:27:56.118Z,10.54
2022-07-28T22:30:23.958Z,10.45
2022-07-28T22:32:51.748Z,10.34
2022-07-28T22:35:19.787Z,10.42
2022-07-28T22:37:47.698Z,10.37
2022-07-28T22:40:17.260Z,10.32
2022-07-28T22:42:45.842Z,10.30
2022-07-28T22:45:13.930Z,10.27
2022-07-28T22:47:42.752Z,10.24
2022-07-28T22:50:11.560Z,10.17
2022-07-28T22:52:39.469Z,10.10
2022-07-28T22:55:08.872Z,10.03
2022-07-28T22:57:38.086Z,10.00
2022-07-28T23:00:07.667Z,9.96
2022-07-28T23:02:35.772Z,9.91
2022-07-28T23:05:05.371Z,9.92
2022-07-28T23:07:52.779Z,9.84
2022-07-28T23:10:21.315Z,9.66
2022-07-28T23:12:51.048Z,9.66
2022-07-28T23:15:18.980Z,9.62
2022-07-28T23:17:46.785Z,9.61
2022-07-28T23:20:14.830Z,9.82
2022-07-28T23:22:42.625Z,10.00
2022-07-28T23:25:10.840Z,10.10
2022-07-28T23:27:38.955Z,10.14
2022-07-28T23:30:09.266Z,10.20
2022-07-28T23:32:37.079Z,10.18
2022-07-28T23:35:06.026Z,10.12
2022-07-28T23:37:34.339Z,10.02
2022-07-28T23:40:02.433Z,9.96
2022-07-28T23:42:30.338Z,9.91
2022-07-28T23:44:58.133Z,9.82
2022-07-28T23:47:27.759Z,9.73
2022-07-28T23:49:55.881Z,9.65
2022-07-28T23:52:23.778Z,9.55
2022-07-28T23:54:52.033Z,9.49
2022-07-28T23:57:19.997Z,9.42
2022-07-28T23:59:47.938Z,9.34
